createdAt,value
2022-10-05T00:00:47.060Z,10.70
2022-10-05T00:03:15.228Z,10.80
2022-10-05T00:05:47.280Z,10.80
2022-10-05T00:08:18.806Z,10.80
2022-10-05T00:10:47.759Z,10.80
2022-10-05T00:13:21.939Z,10.80
2022-10-05T00:15:51.099Z,10.80
2022-10-05T00:18:21.060Z,10.90
2022-10-05T00:20:51.094Z,10.90
2022-10-05T00:23:22.628Z,10.90
2022-10-05T00:25:51.109Z,10.90
2022-10-05T00:28:26.552Z,10.90
2022-10-05T00:30:57.492Z,10.90
2022-10-05T00:33:25.910Z,10.90
2022-10-05T00:35:56.759Z,10.90
2022-10-05T00:38:25.549Z,10.90
2022-10-05T00:41:06.514Z,10.90
2022-10-05T00:43:50.615Z,10.90
2022-10-05T00:46:23.169Z,10.90
2022-10-05T00:49:04.375Z,10.90
2022-10-05T00:51:37.034Z,10.90
2022-10-05T00:54:22.804Z,10.90
2022-10-05T00:57:17.366Z,10.90
2022-10-05T00:59:54.355Z,10.90
2022-10-05T01:02:36.564Z,10.90
2022-10-05T01:05:10.831Z,10.90
2022-10-05T01:07:49.021Z,10.90
2022-10-05T01:10:25.829Z,11.00
2022-10-05T01:13:04.845Z,11.00
2022-10-05T01:15:37.674Z,11.00
2022-10-05T01:18:13.912Z,11.10
2022-10-05T01:20:55.602Z,11.10
2022-10-05T01:23:52.575Z,11.10
2022-10-05T01:26:39.527Z,11.10
2022-10-05T01:29:15.536Z,11.10
2022-10-05T01:31:49.633Z,11.10
2022-10-05T01:34:27.846Z,11.10
2022-10-05T01:37:05.444Z,11.20
2022-10-05T01:39:43.881Z,11.10
2022-10-05T01:42:19.812Z,11.20
2022-10-05T01:44:54.877Z,11.20
2022-10-05T01:47:30.019Z,11.20
2022-10-05T01:50:02.502Z,11.20
2022-10-05T01:52:41.614Z,11.20
2022-10-05T01:55:19.728Z,11.20
2022-10-05T01:58:12.691Z,11.20
2022-10-05T02:00:50.684Z,11.10
2022-10-05T02:03:22.252Z,11.20
2022-10-05T02:05:54.214Z,11.20
2022-10-05T02:08:28.416Z,11.20
2022-10-05T02:11:02.296Z,11.20
2022-10-05T02:13:36.677Z,11.10
2022-10-05T02:16:11.458Z,11.10
2022-10-05T02:18:45.224Z,11.10
2022-10-05T02:21:14.010Z,11.10
2022-10-05T02:23:46.166Z,11.10
2022-10-05T02:26:15.849Z,11.10
2022-10-05T02:28:48.739Z,11.10
2022-10-05T02:31:23.715Z,11.10
2022-10-05T02:33:52.028Z,11.10
2022-10-05T02:36:27.055Z,11.10
2022-10-05T02:39:03.647Z,11.10
2022-10-05T02:41:48.618Z,11.10
2022-10-05T02:44:28.609Z,11.10
2022-10-05T02:47:05.873Z,11.10
2022-10-05T02:49:42.002Z,11.00
2022-10-05T02:52:15.460Z,11.00
2022-10-05T02:54:48.529Z,11.00
2022-10-05T02:57:23.357Z,11.00
2022-10-05T02:59:57.883Z,11.00
2022-10-05T03:02:33.188Z,11.00
2022-10-05T03:05:10.467Z,11.00
2022-10-05T03:07:48.710Z,10.90
2022-10-05T03:10:26.695Z,10.90
2022-10-05T03:13:03.358Z,10.90
2022-10-05T03:15:46.143Z,10.90
2022-10-05T03:18:29.930Z,10.90
2022-10-05T03:21:11.008Z,10.90
2022-10-05T03:23:54.297Z,10.90
2022-10-05T03:26:38.085Z,10.90
2022-10-05T03:29:19.782Z,10.90
2022-10-05T03:31:56.153Z,10.90
2022-10-05T03:34:35.038Z,11.00
2022-10-05T03:37:10.653Z,11.00
2022-10-05T03:39:45.907Z,11.00
2022-10-05T03:42:25.649Z,11.00
2022-10-05T03:45:00.651Z,11.00
2022-10-05T03:47:38.221Z,11.00
2022-10-05T03:50:24.958Z,11.00
2022-10-05T03:52:59.071Z,11.00
2022-10-05T03:55:32.122Z,11.00
2022-10-05T03:58:06.640Z,11.00
2022-10-05T04:00:36.178Z,11.00
2022-10-05T04:03:11.168Z,11.00
2022-10-05T04:05:46.851Z,11.00
2022-10-05T04:08:26.307Z,11.00
2022-10-05T04:10:58.004Z,11.00
2022-10-05T04:13:32.471Z,11.00
2022-10-05T04:16:05.805Z,11.00
2022-10-05T04:18:38.023Z,11.00
2022-10-05T04:21:12.601Z,11.00
2022-10-05T04:23:48.037Z,11.00
2022-10-05T04:26:21.056Z,11.00
2022-10-05T04:28:56.004Z,11.00
2022-10-05T04:31:45.954Z,11.00
2022-10-05T04:34:26.318Z,11.00
2022-10-05T04:37:01.040Z,11.00
2022-10-05T04:39:38.723Z,10.90
2022-10-05T04:42:17.790Z,10.90
2022-10-05T04:45:02.951Z,10.90
2022-10-05T04:48:02.218Z,10.90
2022-10-05T04:50:49.212Z,10.90
2022-10-05T04:53:30.198Z,10.90
2022-10-05T04:56:03.566Z,10.90
2022-10-05T04:58:57.170Z,10.90
2022-10-05T05:01:42.294Z,10.90
2022-10-05T05:04:37.663Z,10.90
2022-10-05T05:07:22.243Z,10.90
2022-10-05T05:10:16.331Z,10.90
2022-10-05T05:12:58.867Z,10.90
2022-10-05T05:15:44.638Z,10.90
2022-10-05T05:18:45.636Z,10.90
2022-10-05T05:21:23.578Z,10.90
2022-10-05T05:23:58.871Z,10.90
2022-10-05T05:26:45.398Z,10.90
2022-10-05T05:29:19.793Z,11.00
2022-10-05T05:31:53.334Z,11.00
2022-10-05T05:34:39.668Z,11.00
2022-10-05T05:37:19.373Z,11.10
2022-10-05T05:40:00.903Z,11.10
2022-10-05T05:42:40.567Z,11.20
2022-10-05T05:45:18.818Z,11.10
2022-10-05T05:47:53.866Z,11.30
2022-10-05T05:50:36.020Z,11.30
2022-10-05T05:53:10.892Z,11.30
2022-10-05T05:55:45.067Z,11.30
2022-10-05T05:58:23.107Z,11.30
2022-10-05T06:00:56.385Z,11.40
2022-10-05T06:03:31.771Z,11.40
2022-10-05T06:06:03.591Z,11.50
2022-10-05T06:08:37.032Z,11.60
2022-10-05T06:11:18.817Z,11.60
2022-10-05T06:13:49.075Z,11.70
2022-10-05T06:16:23.375Z,11.80
2022-10-05T06:18:56.594Z,11.80
2022-10-05T06:21:31.707Z,11.90
2022-10-05T06:24:05.756Z,12.00
2022-10-05T06:27:19.138Z,12.10
2022-10-05T06:30:02.412Z,12.10
2022-10-05T06:32:35.181Z,12.20
2022-10-05T06:35:19.487Z,12.30
2022-10-05T06:38:05.199Z,12.40
2022-10-05T06:40:48.868Z,12.50
2022-10-05T06:43:36.101Z,12.50
2022-10-05T06:46:30.628Z,12.60
2022-10-05T06:49:20.326Z,12.70
2022-10-05T06:52:15.866Z,12.80
2022-10-05T06:54:55.481Z,12.90
2022-10-05T06:57:51.329Z,12.90
2022-10-05T07:00:21.964Z,13.00
2022-10-05T07:03:01.645Z,13.00
2022-10-05T07:05:45.613Z,13.10
2022-10-05T07:08:19.062Z,13.20
2022-10-05T07:11:07.799Z,13.20
2022-10-05T07:13:58.433Z,13.30
2022-10-05T07:16:39.501Z,13.40
2022-10-05T07:19:31.671Z,13.50
2022-10-05T07:22:30.448Z,13.70
2022-10-05T07:25:11.437Z,13.80
2022-10-05T07:27:49.575Z,13.90
2022-10-05T07:30:20.991Z,14.00
2022-10-05T07:32:59.786Z,14.10
2022-10-05T07:35:59.580Z,14.30
2022-10-05T07:38:32.181Z,14.50
2022-10-05T07:41:07.538Z,14.70
2022-10-05T07:44:01.627Z,14.80
2022-10-05T07:46:42.596Z,15.00
2022-10-05T07:49:19.352Z,15.10
2022-10-05T07:51:53.951Z,15.20
2022-10-05T07:54:26.146Z,15.20
2022-10-05T07:57:03.150Z,15.30
2022-10-05T07:59:37.398Z,15.40
2022-10-05T08:02:13.673Z,15.40
2022-10-05T08:04:53.390Z,15.60
2022-10-05T08:09:56.666Z,15.80
2022-10-05T08:12:33.287Z,15.90
2022-10-05T08:15:06.551Z,16.00
2022-10-05T08:17:45.312Z,16.10
2022-10-05T08:20:41.660Z,16.20
2022-10-05T08:23:26.808Z,16.30
2022-10-05T08:26:12.751Z,16.60
2022-10-05T08:28:47.210Z,17.40
2022-10-05T08:31:21.483Z,18.00
2022-10-05T08:33:59.695Z,18.20
2022-10-05T08:36:45.119Z,18.30
2022-10-05T08:39:19.622Z,18.20
2022-10-05T08:42:24.898Z,18.20
2022-10-05T08:45:31.915Z,18.30
2022-10-05T08:48:19.619Z,18.40
2022-10-05T08:51:13.451Z,18.50
2022-10-05T08:54:10.336Z,18.60
2022-10-05T08:56:44.465Z,18.60
2022-10-05T08:59:26.921Z,18.60
2022-10-05T09:02:15.501Z,18.50
2022-10-05T09:05:26.605Z,18.60
2022-10-05T09:08:31.024Z,18.80
2022-10-05T09:11:05.936Z,19.00
2022-10-05T09:14:22.879Z,19.10
2022-10-05T09:16:58.257Z,19.40
2022-10-05T09:19:45.521Z,19.60
2022-10-05T09:22:24.119Z,19.70
2022-10-05T09:24:57.381Z,19.80
2022-10-05T09:27:53.021Z,19.90
2022-10-05T09:30:35.923Z,19.90
2022-10-05T09:33:35.155Z,19.90
2022-10-05T09:36:42.781Z,19.90
2022-10-05T09:39:27.937Z,19.90
2022-10-05T09:42:14.807Z,19.90
2022-10-05T09:45:21.430Z,19.90
2022-10-05T09:48:18.225Z,19.90
2022-10-05T09:51:14.236Z,20.00
2022-10-05T09:54:12.971Z,20.00
2022-10-05T09:57:27.167Z,20.10
2022-10-05T10:00:28.182Z,20.30
2022-10-05T10:03:38.319Z,20.40
2022-10-05T10:06:26.190Z,20.60
2022-10-05T10:09:15.259Z,20.60
2022-10-05T10:12:02.968Z,20.70
2022-10-05T10:15:07.341Z,20.90
2022-10-05T10:17:58.803Z,21.20
2022-10-05T10:20:42.996Z,21.30
2022-10-05T10:23:36.711Z,21.60
2022-10-05T10:26:31.650Z,21.90
2022-10-05T10:29:33.005Z,22.10
2022-10-05T10:32:39.832Z,22.40
2022-10-05T10:38:31.414Z,22.90
2022-10-05T10:41:46.578Z,23.10
2022-10-05T10:44:37.187Z,23.20
2022-10-05T10:47:34.233Z,23.40
2022-10-05T10:50:48.792Z,23.50
2022-10-05T10:53:43.184Z,23.40
2022-10-05T10:56:40.539Z,23.40
2022-10-05T10:59:47.400Z,23.50
2022-10-05T11:02:40.079Z,23.50
2022-10-05T11:05:29.505Z,23.50
2022-10-05T11:08:08.207Z,23.50
2022-10-05T11:10:56.333Z,23.50
2022-10-05T11:13:46.373Z,23.40
2022-10-05T11:16:53.517Z,23.20
2022-10-05T11:20:03.123Z,23.00
2022-10-05T11:22:57.988Z,22.90
2022-10-05T11:25:48.869Z,22.80
2022-10-05T11:28:36.287Z,22.70
2022-10-05T11:31:33.927Z,22.60
2022-10-05T11:34:17.359Z,22.50
2022-10-05T11:37:00.569Z,22.40
2022-10-05T11:39:58.835Z,22.30
2022-10-05T11:43:09.192Z,22.20
2022-10-05T11:45:56.699Z,22.10
2022-10-05T11:48:55.901Z,22.00
2022-10-05T11:51:46.969Z,21.80
2022-10-05T11:55:09.359Z,21.80
2022-10-05T11:57:43.660Z,21.80
2022-10-05T12:00:18.995Z,21.80
2022-10-05T12:03:09.350Z,21.70
2022-10-05T12:05:47.685Z,21.70
2022-10-05T12:08:29.367Z,21.70
2022-10-05T12:11:05.779Z,21.60
2022-10-05T12:13:42.169Z,21.60
2022-10-05T12:16:17.163Z,21.60
2022-10-05T12:18:56.256Z,21.50
2022-10-05T12:21:37.712Z,21.50
2022-10-05T12:24:14.954Z,21.40
2022-10-05T12:26:48.723Z,21.40
2022-10-05T12:29:24.685Z,21.30
2022-10-05T12:31:59.949Z,21.30
2022-10-05T12:34:40.184Z,21.30
2022-10-05T12:37:29.825Z,21.30
2022-10-05T12:40:03.117Z,21.30
2022-10-05T12:42:41.589Z,21.20
2022-10-05T12:45:23.050Z,21.10
2022-10-05T12:48:10.155Z,21.00
2022-10-05T12:50:42.793Z,21.00
2022-10-05T12:53:26.252Z,20.90
2022-10-05T12:56:02.643Z,20.90
2022-10-05T12:58:44.513Z,20.60
2022-10-05T13:01:28.195Z,20.60
2022-10-05T13:04:07.382Z,20.60
2022-10-05T13:06:43.874Z,20.60
2022-10-05T13:09:20.086Z,20.60
2022-10-05T13:11:51.431Z,20.60
2022-10-05T13:14:36.019Z,20.60
2022-10-05T13:17:13.564Z,20.60
2022-10-05T13:19:45.645Z,20.60
2022-10-05T13:22:33.129Z,20.50
2022-10-05T13:25:18.084Z,20.60
2022-10-05T13:27:53.438Z,20.50
2022-10-05T13:30:22.769Z,20.50
2022-10-05T13:32:58.409Z,20.50
2022-10-05T13:35:44.736Z,20.30
2022-10-05T13:38:26.447Z,20.30
2022-10-05T13:41:05.483Z,20.20
2022-10-05T13:43:44.037Z,20.20
2022-10-05T13:46:23.860Z,20.10
2022-10-05T13:49:01.366Z,20.10
2022-10-05T13:51:37.594Z,20.10
2022-10-05T13:54:16.394Z,20.00
2022-10-05T13:56:49.760Z,19.90
2022-10-05T13:59:28.968Z,19.90
2022-10-05T14:02:02.011Z,19.90
2022-10-05T14:04:31.560Z,19.80
2022-10-05T14:07:21.612Z,19.70
2022-10-05T14:09:51.028Z,19.60
2022-10-05T14:12:24.407Z,19.50
2022-10-05T14:14:54.501Z,19.50
2022-10-05T14:17:40.844Z,19.40
2022-10-05T14:20:23.069Z,19.40
2022-10-05T14:22:56.062Z,19.30
2022-10-05T14:25:24.822Z,19.20
2022-10-05T14:28:01.073Z,19.20
2022-10-05T14:30:31.115Z,19.20
2022-10-05T14:33:15.205Z,19.10
2022-10-05T14:35:50.181Z,19.00
2022-10-05T14:38:21.153Z,19.00
2022-10-05T14:41:05.799Z,18.90
2022-10-05T14:43:36.349Z,18.90
2022-10-05T14:46:28.121Z,18.90
2022-10-05T14:49:13.970Z,18.80
2022-10-05T14:51:43.291Z,18.70
2022-10-05T14:54:27.803Z,18.70
2022-10-05T14:57:04.504Z,18.70
2022-10-05T15:00:05.962Z,18.60
2022-10-05T15:03:01.059Z,18.50
2022-10-05T15:05:36.520Z,18.50
2022-10-05T15:08:15.780Z,18.50
2022-10-05T15:10:50.200Z,18.40
2022-10-05T15:13:21.452Z,18.40
2022-10-05T15:15:54.831Z,18.40
2022-10-05T15:18:32.382Z,18.30
2022-10-05T15:21:35.820Z,18.30
2022-10-05T15:24:09.934Z,18.20
2022-10-05T15:26:51.754Z,18.10
2022-10-05T15:29:42.459Z,18.10
2022-10-05T15:32:27.103Z,18.00
2022-10-05T15:35:06.675Z,17.90
2022-10-05T15:37:43.152Z,17.90
2022-10-05T15:40:23.283Z,17.90
2022-10-05T15:42:54.532Z,17.90
2022-10-05T15:45:33.515Z,17.90
2022-10-05T15:48:06.228Z,17.80
2022-10-05T15:50:42.148Z,17.80
2022-10-05T15:53:18.714Z,17.70
2022-10-05T15:55:52.377Z,17.70
2022-10-05T15:58:46.504Z,17.60
2022-10-05T16:01:19.762Z,17.60
2022-10-05T16:03:55.188Z,17.50
2022-10-05T16:06:54.054Z,17.50
2022-10-05T16:09:38.243Z,17.50
2022-10-05T16:12:35.270Z,17.50
2022-10-05T16:15:20.431Z,17.40
2022-10-05T16:18:18.344Z,17.40
2022-10-05T16:20:52.804Z,17.30
2022-10-05T16:23:31.401Z,17.30
2022-10-05T16:26:13.346Z,17.30
2022-10-05T16:28:53.998Z,17.30
2022-10-05T16:31:31.076Z,17.20
2022-10-05T16:34:06.760Z,17.20
2022-10-05T16:36:50.032Z,17.20
2022-10-05T16:39:39.707Z,17.20
2022-10-05T16:42:17.734Z,17.20
2022-10-05T16:44:54.575Z,17.10
2022-10-05T16:47:35.661Z,17.10
2022-10-05T16:50:16.674Z,17.10
2022-10-05T16:52:50.801Z,17.00
2022-10-05T16:55:28.214Z,16.90
2022-10-05T16:57:57.994Z,16.90
2022-10-05T17:00:34.247Z,16.80
2022-10-05T17:03:16.604Z,16.80
2022-10-05T17:06:30.196Z,16.80
2022-10-05T17:09:39.485Z,16.80
2022-10-05T17:12:39.544Z,16.70
2022-10-05T17:15:29.602Z,16.70
2022-10-05T17:18:16.670Z,16.70
2022-10-05T17:20:52.107Z,16.70
2022-10-05T17:23:51.568Z,16.70
2022-10-05T17:26:54.843Z,16.70
2022-10-05T17:29:42.938Z,16.70
2022-10-05T17:32:13.362Z,16.70
2022-10-05T17:35:18.399Z,16.70
2022-10-05T17:38:14.221Z,16.60
2022-10-05T17:41:03.240Z,16.50
2022-10-05T17:43:33.635Z,16.50
2022-10-05T17:46:03.025Z,16.50
2022-10-05T17:49:07.834Z,16.50
2022-10-05T17:52:18.274Z,16.40
2022-10-05T17:55:26.818Z,16.40
2022-10-05T17:57:58.743Z,16.40
2022-10-05T18:00:56.695Z,16.40
2022-10-05T18:03:43.188Z,16.30
2022-10-05T18:06:38.270Z,16.30
2022-10-05T18:09:37.717Z,16.30
2022-10-05T18:12:40.206Z,16.30
2022-10-05T18:15:21.361Z,16.20
2022-10-05T18:17:54.844Z,16.20
2022-10-05T18:20:32.668Z,16.20
2022-10-05T18:23:35.712Z,16.20
2022-10-05T18:26:09.194Z,16.10
2022-10-05T18:28:52.846Z,16.10
2022-10-05T18:31:32.101Z,16.00
2022-10-05T18:34:22.885Z,16.00
2022-10-05T18:37:10.588Z,16.00
2022-10-05T18:39:57.659Z,16.00
2022-10-05T18:42:34.187Z,16.00
2022-10-05T18:45:17.528Z,15.90
2022-10-05T18:47:55.509Z,15.90
2022-10-05T18:50:31.987Z,15.90
2022-10-05T18:53:13.115Z,16.00
2022-10-05T18:55:46.792Z,15.90
2022-10-05T18:58:26.110Z,15.90
2022-10-05T19:01:11.053Z,15.90
2022-10-05T19:03:47.261Z,15.90
2022-10-05T19:06:25.546Z,15.90
2022-10-05T19:09:04.010Z,15.90
2022-10-05T19:11:39.647Z,15.90
2022-10-05T19:14:18.677Z,15.80
2022-10-05T19:17:01.651Z,15.80
2022-10-05T19:19:52.420Z,15.80
2022-10-05T19:22:32.679Z,15.90
2022-10-05T19:25:17.381Z,15.80
2022-10-05T19:27:56.514Z,15.80
2022-10-05T19:30:27.455Z,15.80
2022-10-05T19:33:42.623Z,15.80
2022-10-05T19:36:31.985Z,15.70
2022-10-05T19:39:08.551Z,15.70
2022-10-05T19:41:54.283Z,15.70
2022-10-05T19:44:35.408Z,15.70
2022-10-05T19:47:11.395Z,15.70
2022-10-05T19:49:44.614Z,15.70
2022-10-05T19:52:21.192Z,15.70
2022-10-05T19:55:02.268Z,15.70
2022-10-05T19:57:30.988Z,15.70
2022-10-05T19:59:59.498Z,15.60
2022-10-05T20:02:32.027Z,15.60
2022-10-05T20:05:08.371Z,15.60
2022-10-05T20:07:37.080Z,15.60
2022-10-05T20:10:29.071Z,15.60
2022-10-05T20:12:59.435Z,15.50
2022-10-05T20:15:46.852Z,15.50
2022-10-05T20:18:54.825Z,15.50
2022-10-05T20:21:45.608Z,15.50
2022-10-05T20:24:16.050Z,15.50
2022-10-05T20:27:05.326Z,15.50
2022-10-05T20:29:36.495Z,15.50
2022-10-05T20:32:08.776Z,15.40
2022-10-05T20:34:41.766Z,15.40
2022-10-05T20:37:10.632Z,15.40
2022-10-05T20:39:39.321Z,15.40
2022-10-05T20:42:09.189Z,15.40
2022-10-05T20:44:38.071Z,15.30
2022-10-05T20:47:08.852Z,15.30
2022-10-05T20:49:39.187Z,15.30
2022-10-05T20:52:10.211Z,15.30
2022-10-05T20:54:39.370Z,15.30
2022-10-05T20:57:09.846Z,15.30
2022-10-05T20:59:38.367Z,15.20
2022-10-05T21:02:06.827Z,15.20
2022-10-05T21:04:42.896Z,15.20
2022-10-05T21:07:11.375Z,15.20
2022-10-05T21:09:40.986Z,15.10
2022-10-05T21:12:11.018Z,15.10
2022-10-05T21:14:39.299Z,15.10
2022-10-05T21:17:08.027Z,15.10
2022-10-05T21:19:38.568Z,15.10
2022-10-05T21:22:08.574Z,15.10
2022-10-05T21:24:37.342Z,15.00
2022-10-05T21:27:06.602Z,15.00
2022-10-05T21:29:37.100Z,15.00
2022-10-05T21:32:08.722Z,14.90
2022-10-05T21:34:37.073Z,14.90
2022-10-05T21:37:05.718Z,14.80
2022-10-05T21:39:35.179Z,14.80
2022-10-05T21:42:03.598Z,14.70
2022-10-05T21:44:31.823Z,14.70
2022-10-05T21:47:01.452Z,14.70
2022-10-05T21:49:29.838Z,14.60
2022-10-05T21:51:59.776Z,14.50
2022-10-05T21:54:28.704Z,14.50
2022-10-05T21:56:58.561Z,14.50
2022-10-05T21:59:30.403Z,14.40
2022-10-05T22:02:02.383Z,14.30
2022-10-05T22:04:32.097Z,14.30
2022-10-05T22:07:00.412Z,14.20
2022-10-05T22:09:28.667Z,14.20
2022-10-05T22:11:57.387Z,14.20
2022-10-05T22:14:25.837Z,14.20
2022-10-05T22:16:56.161Z,14.10
2022-10-05T22:19:24.535Z,14.10
2022-10-05T22:21:54.182Z,14.10
2022-10-05T22:24:22.461Z,14.10
2022-10-05T22:26:51.799Z,14.00
2022-10-05T22:29:22.701Z,14.00
2022-10-05T22:31:51.027Z,14.00
2022-10-05T22:34:19.610Z,14.00
2022-10-05T22:36:48.747Z,14.00
2022-10-05T22:39:19.831Z,14.00
2022-10-05T22:41:48.767Z,14.00
2022-10-05T22:44:16.961Z,13.90
2022-10-05T22:46:45.290Z,13.90
2022-10-05T22:49:13.462Z,13.90
2022-10-05T22:51:41.788Z,13.90
2022-10-05T22:54:09.982Z,13.90
2022-10-05T22:56:39.599Z,13.90
2022-10-05T22:59:07.832Z,13.90
2022-10-05T23:01:36.279Z,13.80
2022-10-05T23:04:05.479Z,13.90
2022-10-05T23:06:33.725Z,13.80
2022-10-05T23:09:01.900Z,13.80
2022-10-05T23:11:31.179Z,13.80
2022-10-05T23:14:01.001Z,13.80
2022-10-05T23:16:29.929Z,13.80
2022-10-05T23:19:00.983Z,13.70
2022-10-05T23:21:30.802Z,13.70
2022-10-05T23:23:58.986Z,13.70
2022-10-05T23:26:27.555Z,13.70
2022-10-05T23:28:55.729Z,13.70
2022-10-05T23:31:27.689Z,13.70
2022-10-05T23:33:56.380Z,13.70
2022-10-05T23:36:26.288Z,13.70
2022-10-05T23:38:55.110Z,13.70
2022-10-05T23:41:23.709Z,13.60
2022-10-05T23:43:52.116Z,13.60
2022-10-05T23:46:22.969Z,13.60
2022-10-05T23:48:53.352Z,13.60
2022-10-05T23:51:21.651Z,13.60
2022-10-05T23:53:49.838Z,13.60
2022-10-05T23:56:18.154Z,13.60
2022-10-05T23:58:48.851Z,13.60
